sensor_id;sensor_type;location;lat;lon;timestamp;P1;durP1;ratioP1;P2;durP2;ratioP2
6983;SDS011;3532;51.118;7.210;2023-07-29T00:01:17;3.83;;;2.37;;
6983;SDS011;3532;51.118;7.210;2023-07-29T00:03:42;2.97;;;2.20;;
6983;SDS011;3532;51.118;7.210;2023-07-29T00:06:09;3.57;;;2.53;;
6983;SDS011;3532;51.118;7.210;2023-07-29T00:08:34;4.87;;;2.67;;
6983;SDS011;3532;51.118;7.210;2023-07-29T00:10:59;2.67;;;2.27;;
6983;SDS011;3532;51.118;7.210;2023-07-29T00:13:25;3.07;;;2.30;;
6983;SDS011;3532;51.118;7.210;2023-07-29T00:15:53;2.70;;;2.50;;
6983;SDS011;3532;51.118;7.210;2023-07-29T00:18:19;2.47;;;2.37;;
6983;SDS011;3532;51.118;7.210;2023-07-29T00:20:44;2.80;;;2.60;;
6983;SDS011;3532;51.118;7.210;2023-07-29T00:23:10;4.30;;;3.10;;
6983;SDS011;3532;51.118;7.210;2023-07-29T00:25:36;3.00;;;2.70;;
6983;SDS011;3532;51.118;7.210;2023-07-29T00:28:02;3.23;;;2.87;;
6983;SDS011;3532;51.118;7.210;2023-07-29T00:30:27;2.90;;;2.70;;
6983;SDS011;3532;51.118;7.210;2023-07-29T00:32:52;4.03;;;2.53;;
6983;SDS011;3532;51.118;7.210;2023-07-29T00:35:18;3.37;;;2.93;;
6983;SDS011;3532;51.118;7.210;2023-07-29T00:37:43;2.83;;;2.63;;
6983;SDS011;3532;51.118;7.210;2023-07-29T00:40:29;3.33;;;2.80;;
6983;SDS011;3532;51.118;7.210;2023-07-29T00:42:55;5.67;;;2.83;;
6983;SDS011;3532;51.118;7.210;2023-07-29T00:45:20;4.17;;;2.80;;
6983;SDS011;3532;51.118;7.210;2023-07-29T00:47:46;2.80;;;2.60;;
6983;SDS011;3532;51.118;7.210;2023-07-29T00:50:12;2.90;;;2.70;;
6983;SDS011;3532;51.118;7.210;2023-07-29T00:52:38;2.90;;;2.70;;
6983;SDS011;3532;51.118;7.210;2023-07-29T00:55:04;2.73;;;2.50;;
6983;SDS011;3532;51.118;7.210;2023-07-29T00:57:30;2.70;;;2.50;;
6983;SDS011;3532;51.118;7.210;2023-07-29T00:59:56;2.67;;;2.47;;
6983;SDS011;3532;51.118;7.210;2023-07-29T01:02:22;3.10;;;2.60;;
6983;SDS011;3532;51.118;7.210;2023-07-29T01:04:54;5.07;;;3.73;;
6983;SDS011;3532;51.118;7.210;2023-07-29T01:07:40;2.80;;;2.60;;
6983;SDS011;3532;51.118;7.210;2023-07-29T01:15:35;3.37;;;2.73;;
6983;SDS011;3532;51.118;7.210;2023-07-29T01:18:08;2.70;;;2.50;;
6983;SDS011;3532;51.118;7.210;2023-07-29T01:20:48;2.63;;;2.43;;
6983;SDS011;3532;51.118;7.210;2023-07-29T01:23:23;2.50;;;2.30;;
6983;SDS011;3532;51.118;7.210;2023-07-29T01:25:58;2.27;;;2.17;;
6983;SDS011;3532;51.118;7.210;2023-07-29T01:28:24;2.47;;;2.33;;
6983;SDS011;3532;51.118;7.210;2023-07-29T01:30:51;3.77;;;2.90;;
6983;SDS011;3532;51.118;7.210;2023-07-29T01:33:24;2.93;;;2.60;;
6983;SDS011;3532;51.118;7.210;2023-07-29T01:35:55;2.70;;;2.50;;
6983;SDS011;3532;51.118;7.210;2023-07-29T01:38:41;2.77;;;2.57;;
6983;SDS011;3532;51.118;7.210;2023-07-29T01:41:07;4.20;;;2.50;;
6983;SDS011;3532;51.118;7.210;2023-07-29T01:43:33;2.70;;;2.50;;
6983;SDS011;3532;51.118;7.210;2023-07-29T01:46:00;3.87;;;2.90;;
6983;SDS011;3532;51.118;7.210;2023-07-29T01:48:25;2.77;;;2.57;;
6983;SDS011;3532;51.118;7.210;2023-07-29T01:50:52;2.67;;;2.47;;
6983;SDS011;3532;51.118;7.210;2023-07-29T01:53:17;2.77;;;2.57;;
6983;SDS011;3532;51.118;7.210;2023-07-29T01:55:43;2.93;;;2.67;;
6983;SDS011;3532;51.118;7.210;2023-07-29T01:58:09;3.03;;;2.83;;
6983;SDS011;3532;51.118;7.210;2023-07-29T02:00:35;2.90;;;2.70;;
6983;SDS011;3532;51.118;7.210;2023-07-29T02:03:00;3.53;;;3.27;;
6983;SDS011;3532;51.118;7.210;2023-07-29T02:05:25;2.80;;;2.60;;
6983;SDS011;3532;51.118;7.210;2023-07-29T02:07:51;3.03;;;2.63;;
6983;SDS011;3532;51.118;7.210;2023-07-29T02:10:16;3.30;;;3.10;;
6983;SDS011;3532;51.118;7.210;2023-07-29T02:12:41;3.20;;;2.90;;
6983;SDS011;3532;51.118;7.210;2023-07-29T02:15:07;2.93;;;2.73;;
6983;SDS011;3532;51.118;7.210;2023-07-29T02:17:33;2.97;;;2.77;;
6983;SDS011;3532;51.118;7.210;2023-07-29T02:19:59;3.20;;;3.00;;
6983;SDS011;3532;51.118;7.210;2023-07-29T02:22:24;2.43;;;2.33;;
6983;SDS011;3532;51.118;7.210;2023-07-29T02:24:49;3.40;;;3.10;;
6983;SDS011;3532;51.118;7.210;2023-07-29T02:27:14;3.40;;;3.20;;
6983;SDS011;3532;51.118;7.210;2023-07-29T02:29:40;2.97;;;2.77;;
6983;SDS011;3532;51.118;7.210;2023-07-29T02:32:05;2.87;;;2.67;;
6983;SDS011;3532;51.118;7.210;2023-07-29T02:34:30;2.87;;;2.67;;
6983;SDS011;3532;51.118;7.210;2023-07-29T02:36:56;2.73;;;2.53;;
6983;SDS011;3532;51.118;7.210;2023-07-29T02:39:21;3.47;;;3.20;;
6983;SDS011;3532;51.118;7.210;2023-07-29T02:41:48;3.50;;;2.90;;
6983;SDS011;3532;51.118;7.210;2023-07-29T02:44:13;4.07;;;2.97;;
6983;SDS011;3532;51.118;7.210;2023-07-29T02:46:38;2.83;;;2.63;;
6983;SDS011;3532;51.118;7.210;2023-07-29T02:49:04;3.10;;;2.90;;
6983;SDS011;3532;51.118;7.210;2023-07-29T02:51:30;3.70;;;2.83;;
6983;SDS011;3532;51.118;7.210;2023-07-29T02:53:55;4.23;;;3.00;;
6983;SDS011;3532;51.118;7.210;2023-07-29T02:56:21;4.80;;;2.97;;
6983;SDS011;3532;51.118;7.210;2023-07-29T02:58:46;3.40;;;3.20;;
6983;SDS011;3532;51.118;7.210;2023-07-29T03:01:11;4.20;;;3.10;;
6983;SDS011;3532;51.118;7.210;2023-07-29T03:03:37;3.57;;;3.37;;
6983;SDS011;3532;51.118;7.210;2023-07-29T03:06:03;3.90;;;3.60;;
6983;SDS011;3532;51.118;7.210;2023-07-29T03:08:30;3.40;;;3.10;;
6983;SDS011;3532;51.118;7.210;2023-07-29T03:10:55;3.30;;;3.10;;
6983;SDS011;3532;51.118;7.210;2023-07-29T03:13:21;3.33;;;3.10;;
6983;SDS011;3532;51.118;7.210;2023-07-29T03:15:46;4.47;;;3.83;;
6983;SDS011;3532;51.118;7.210;2023-07-29T03:18:12;4.87;;;3.97;;
6983;SDS011;3532;51.118;7.210;2023-07-29T03:20:37;5.17;;;4.77;;
6983;SDS011;3532;51.118;7.210;2023-07-29T03:23:02;5.33;;;4.93;;
6983;SDS011;3532;51.118;7.210;2023-07-29T03:25:28;5.70;;;5.30;;
6983;SDS011;3532;51.118;7.210;2023-07-29T03:27:53;6.83;;;6.33;;
6983;SDS011;3532;51.118;7.210;2023-07-29T03:30:19;6.43;;;5.93;;
6983;SDS011;3532;51.118;7.210;2023-07-29T03:32:46;6.80;;;6.20;;
6983;SDS011;3532;51.118;7.210;2023-07-29T03:35:11;6.13;;;5.53;;
6983;SDS011;3532;51.118;7.210;2023-07-29T03:37:36;7.20;;;6.00;;
6983;SDS011;3532;51.118;7.210;2023-07-29T03:40:02;6.47;;;5.97;;
6983;SDS011;3532;51.118;7.210;2023-07-29T03:42:28;7.80;;;7.10;;
6983;SDS011;3532;51.118;7.210;2023-07-29T03:44:53;8.23;;;7.63;;
6983;SDS011;3532;51.118;7.210;2023-07-29T03:47:18;10.87;;;10.07;;
6983;SDS011;3532;51.118;7.210;2023-07-29T03:49:44;10.00;;;9.17;;
6983;SDS011;3532;51.118;7.210;2023-07-29T03:52:09;11.83;;;10.83;;
6983;SDS011;3532;51.118;7.210;2023-07-29T03:54:35;10.87;;;9.87;;
6983;SDS011;3532;51.118;7.210;2023-07-29T03:57:00;12.90;;;11.80;;
6983;SDS011;3532;51.118;7.210;2023-07-29T03:59:25;13.23;;;12.23;;
6983;SDS011;3532;51.118;7.210;2023-07-29T04:01:51;13.53;;;12.43;;
6983;SDS011;3532;51.118;7.210;2023-07-29T04:04:16;14.60;;;13.33;;
6983;SDS011;3532;51.118;7.210;2023-07-29T04:06:41;15.27;;;14.17;;
6983;SDS011;3532;51.118;7.210;2023-07-29T04:09:07;14.80;;;13.60;;
6983;SDS011;3532;51.118;7.210;2023-07-29T04:11:33;13.63;;;12.67;;
6983;SDS011;3532;51.118;7.210;2023-07-29T04:13:58;13.47;;;12.37;;
6983;SDS011;3532;51.118;7.210;2023-07-29T04:16:23;14.17;;;13.00;;
6983;SDS011;3532;51.118;7.210;2023-07-29T04:18:49;13.87;;;12.73;;
6983;SDS011;3532;51.118;7.210;2023-07-29T04:21:14;15.60;;;14.20;;
6983;SDS011;3532;51.118;7.210;2023-07-29T04:23:39;18.40;;;14.83;;
6983;SDS011;3532;51.118;7.210;2023-07-29T04:26:05;16.27;;;14.97;;
6983;SDS011;3532;51.118;7.210;2023-07-29T04:28:30;15.00;;;13.80;;
6983;SDS011;3532;51.118;7.210;2023-07-29T04:30:56;16.73;;;15.23;;
6983;SDS011;3532;51.118;7.210;2023-07-29T04:33:21;17.93;;;16.33;;
6983;SDS011;3532;51.118;7.210;2023-07-29T04:35:46;16.10;;;14.80;;
6983;SDS011;3532;51.118;7.210;2023-07-29T04:38:12;16.17;;;14.67;;
6983;SDS011;3532;51.118;7.210;2023-07-29T04:40:37;18.67;;;16.97;;
6983;SDS011;3532;51.118;7.210;2023-07-29T04:43:02;15.53;;;14.23;;
6983;SDS011;3532;51.118;7.210;2023-07-29T04:45:28;15.80;;;14.43;;
6983;SDS011;3532;51.118;7.210;2023-07-29T04:47:54;18.67;;;16.87;;
6983;SDS011;3532;51.118;7.210;2023-07-29T04:50:20;17.57;;;16.07;;
6983;SDS011;3532;51.118;7.210;2023-07-29T04:52:45;16.90;;;15.40;;
6983;SDS011;3532;51.118;7.210;2023-07-29T04:55:10;17.23;;;15.63;;
6983;SDS011;3532;51.118;7.210;2023-07-29T04:57:35;17.47;;;15.97;;
6983;SDS011;3532;51.118;7.210;2023-07-29T05:00:02;14.20;;;13.00;;
6983;SDS011;3532;51.118;7.210;2023-07-29T05:02:27;14.00;;;12.90;;
6983;SDS011;3532;51.118;7.210;2023-07-29T05:04:53;14.37;;;13.07;;
6983;SDS011;3532;51.118;7.210;2023-07-29T05:07:18;12.73;;;11.73;;
6983;SDS011;3532;51.118;7.210;2023-07-29T05:09:44;13.23;;;11.93;;
6983;SDS011;3532;51.118;7.210;2023-07-29T05:12:09;11.60;;;10.63;;
6983;SDS011;3532;51.118;7.210;2023-07-29T05:14:34;7.80;;;7.20;;
6983;SDS011;3532;51.118;7.210;2023-07-29T05:16:59;8.20;;;7.50;;
6983;SDS011;3532;51.118;7.210;2023-07-29T05:19:25;7.87;;;7.17;;
6983;SDS011;3532;51.118;7.210;2023-07-29T05:21:51;7.17;;;6.57;;
6983;SDS011;3532;51.118;7.210;2023-07-29T05:24:16;6.40;;;6.00;;
6983;SDS011;3532;51.118;7.210;2023-07-29T05:26:41;6.23;;;5.73;;
6983;SDS011;3532;51.118;7.210;2023-07-29T05:29:07;7.50;;;6.90;;
6983;SDS011;3532;51.118;7.210;2023-07-29T05:31:32;7.30;;;6.70;;
6983;SDS011;3532;51.118;7.210;2023-07-29T05:33:58;6.40;;;5.90;;
6983;SDS011;3532;51.118;7.210;2023-07-29T05:36:24;6.27;;;5.60;;
6983;SDS011;3532;51.118;7.210;2023-07-29T05:38:49;7.13;;;6.10;;
6983;SDS011;3532;51.118;7.210;2023-07-29T05:41:15;6.70;;;6.10;;
6983;SDS011;3532;51.118;7.210;2023-07-29T05:43:40;6.20;;;5.70;;
6983;SDS011;3532;51.118;7.210;2023-07-29T05:46:08;6.43;;;5.90;;
6983;SDS011;3532;51.118;7.210;2023-07-29T05:48:33;6.30;;;5.80;;
6983;SDS011;3532;51.118;7.210;2023-07-29T05:50:59;6.80;;;6.30;;
6983;SDS011;3532;51.118;7.210;2023-07-29T05:53:24;8.10;;;6.20;;
6983;SDS011;3532;51.118;7.210;2023-07-29T05:55:49;6.57;;;6.03;;
6983;SDS011;3532;51.118;7.210;2023-07-29T05:58:15;6.87;;;6.27;;
6983;SDS011;3532;51.118;7.210;2023-07-29T06:00:40;7.17;;;6.67;;
6983;SDS011;3532;51.118;7.210;2023-07-29T06:03:06;7.13;;;6.53;;
6983;SDS011;3532;51.118;7.210;2023-07-29T06:05:31;6.77;;;6.17;;
6983;SDS011;3532;51.118;7.210;2023-07-29T06:07:56;5.93;;;5.43;;
6983;SDS011;3532;51.118;7.210;2023-07-29T06:10:22;7.33;;;6.67;;
6983;SDS011;3532;51.118;7.210;2023-07-29T06:12:47;7.13;;;6.60;;
6983;SDS011;3532;51.118;7.210;2023-07-29T06:15:13;7.83;;;7.07;;
6983;SDS011;3532;51.118;7.210;2023-07-29T06:17:38;7.63;;;7.03;;
6983;SDS011;3532;51.118;7.210;2023-07-29T06:20:04;8.10;;;7.50;;
6983;SDS011;3532;51.118;7.210;2023-07-29T06:22:30;8.67;;;7.87;;
6983;SDS011;3532;51.118;7.210;2023-07-29T06:24:56;8.27;;;7.57;;
6983;SDS011;3532;51.118;7.210;2023-07-29T06:27:21;8.30;;;7.47;;
6983;SDS011;3532;51.118;7.210;2023-07-29T06:29:46;7.83;;;6.77;;
6983;SDS011;3532;51.118;7.210;2023-07-29T06:32:12;7.53;;;6.90;;
6983;SDS011;3532;51.118;7.210;2023-07-29T06:34:37;7.03;;;6.40;;
6983;SDS011;3532;51.118;7.210;2023-07-29T06:37:02;6.47;;;5.67;;
6983;SDS011;3532;51.118;7.210;2023-07-29T06:39:28;7.23;;;6.47;;
6983;SDS011;3532;51.118;7.210;2023-07-29T06:41:53;6.83;;;6.23;;
6983;SDS011;3532;51.118;7.210;2023-07-29T06:44:18;6.77;;;5.73;;
6983;SDS011;3532;51.118;7.210;2023-07-29T06:46:44;6.57;;;5.87;;
6983;SDS011;3532;51.118;7.210;2023-07-29T06:49:09;5.57;;;5.07;;
6983;SDS011;3532;51.118;7.210;2023-07-29T06:51:34;4.93;;;4.53;;
6983;SDS011;3532;51.118;7.210;2023-07-29T06:54:01;5.90;;;4.70;;
6983;SDS011;3532;51.118;7.210;2023-07-29T06:56:26;3.67;;;3.40;;
6983;SDS011;3532;51.118;7.210;2023-07-29T06:58:52;3.63;;;3.23;;
6983;SDS011;3532;51.118;7.210;2023-07-29T07:01:17;2.97;;;2.77;;
6983;SDS011;3532;51.118;7.210;2023-07-29T07:03:42;3.13;;;2.70;;
6983;SDS011;3532;51.118;7.210;2023-07-29T07:06:08;3.60;;;2.50;;
6983;SDS011;3532;51.118;7.210;2023-07-29T07:08:33;3.50;;;2.40;;
6983;SDS011;3532;51.118;7.210;2023-07-29T07:10:59;2.73;;;2.27;;
6983;SDS011;3532;51.118;7.210;2023-07-29T07:13:24;2.40;;;2.20;;
6983;SDS011;3532;51.118;7.210;2023-07-29T07:15:49;2.77;;;2.40;;
6983;SDS011;3532;51.118;7.210;2023-07-29T07:18:15;3.27;;;2.20;;
6983;SDS011;3532;51.118;7.210;2023-07-29T07:20:40;4.17;;;2.60;;
6983;SDS011;3532;51.118;7.210;2023-07-29T07:23:05;2.83;;;2.57;;
6983;SDS011;3532;51.118;7.210;2023-07-29T07:25:33;4.13;;;2.20;;
6983;SDS011;3532;51.118;7.210;2023-07-29T07:27:59;4.10;;;2.50;;
6983;SDS011;3532;51.118;7.210;2023-07-29T07:30:24;4.23;;;2.53;;
6983;SDS011;3532;51.118;7.210;2023-07-29T07:32:50;5.40;;;2.67;;
6983;SDS011;3532;51.118;7.210;2023-07-29T07:35:15;4.13;;;2.57;;
6983;SDS011;3532;51.118;7.210;2023-07-29T07:37:41;3.13;;;2.90;;
6983;SDS011;3532;51.118;7.210;2023-07-29T07:40:06;3.87;;;3.00;;
6983;SDS011;3532;51.118;7.210;2023-07-29T07:42:32;3.30;;;3.00;;
6983;SDS011;3532;51.118;7.210;2023-07-29T07:44:57;5.10;;;3.20;;
6983;SDS011;3532;51.118;7.210;2023-07-29T07:47:23;2.73;;;2.53;;
6983;SDS011;3532;51.118;7.210;2023-07-29T07:49:48;4.37;;;2.73;;
6983;SDS011;3532;51.118;7.210;2023-07-29T07:52:15;3.13;;;2.90;;
6983;SDS011;3532;51.118;7.210;2023-07-29T07:54:40;3.00;;;2.70;;
6983;SDS011;3532;51.118;7.210;2023-07-29T07:57:05;2.80;;;2.60;;
6983;SDS011;3532;51.118;7.210;2023-07-29T07:59:31;3.40;;;3.10;;
6983;SDS011;3532;51.118;7.210;2023-07-29T08:01:56;2.83;;;2.63;;
6983;SDS011;3532;51.118;7.210;2023-07-29T08:04:21;2.80;;;2.50;;
6983;SDS011;3532;51.118;7.210;2023-07-29T08:06:47;2.53;;;2.33;;
6983;SDS011;3532;51.118;7.210;2023-07-29T08:09:12;2.70;;;2.50;;
6983;SDS011;3532;51.118;7.210;2023-07-29T08:11:37;2.73;;;2.20;;
6983;SDS011;3532;51.118;7.210;2023-07-29T08:14:03;2.40;;;2.20;;
6983;SDS011;3532;51.118;7.210;2023-07-29T08:16:28;2.50;;;2.30;;
6983;SDS011;3532;51.118;7.210;2023-07-29T08:18:53;2.70;;;2.30;;
6983;SDS011;3532;51.118;7.210;2023-07-29T08:21:19;3.73;;;2.30;;
6983;SDS011;3532;51.118;7.210;2023-07-29T08:23:44;2.80;;;2.60;;
6983;SDS011;3532;51.118;7.210;2023-07-29T08:26:09;2.40;;;2.20;;
6983;SDS011;3532;51.118;7.210;2023-07-29T08:28:35;2.50;;;2.30;;
6983;SDS011;3532;51.118;7.210;2023-07-29T08:31:02;2.23;;;2.03;;
6983;SDS011;3532;51.118;7.210;2023-07-29T08:33:28;2.50;;;2.30;;
6983;SDS011;3532;51.118;7.210;2023-07-29T08:35:54;3.60;;;2.30;;
6983;SDS011;3532;51.118;7.210;2023-07-29T08:38:20;2.33;;;2.20;;
6983;SDS011;3532;51.118;7.210;2023-07-29T08:40:49;2.60;;;2.30;;
6983;SDS011;3532;51.118;7.210;2023-07-29T08:43:18;4.67;;;2.30;;
6983;SDS011;3532;51.118;7.210;2023-07-29T08:45:45;3.73;;;2.50;;
6983;SDS011;3532;51.118;7.210;2023-07-29T08:48:10;2.53;;;2.33;;
6983;SDS011;3532;51.118;7.210;2023-07-29T08:50:36;2.17;;;2.03;;
6983;SDS011;3532;51.118;7.210;2023-07-29T08:53:03;3.10;;;2.67;;
6983;SDS011;3532;51.118;7.210;2023-07-29T08:55:30;2.57;;;2.37;;
6983;SDS011;3532;51.118;7.210;2023-07-29T08:57:56;2.57;;;2.37;;
6983;SDS011;3532;51.118;7.210;2023-07-29T09:00:23;2.80;;;2.60;;
6983;SDS011;3532;51.118;7.210;2023-07-29T09:02:48;3.60;;;2.50;;
6983;SDS011;3532;51.118;7.210;2023-07-29T09:05:13;4.57;;;2.80;;
6983;SDS011;3532;51.118;7.210;2023-07-29T09:07:39;3.97;;;2.97;;
6983;SDS011;3532;51.118;7.210;2023-07-29T09:10:08;2.50;;;2.30;;
6983;SDS011;3532;51.118;7.210;2023-07-29T09:12:34;3.77;;;2.70;;
6983;SDS011;3532;51.118;7.210;2023-07-29T09:14:59;4.10;;;2.97;;
6983;SDS011;3532;51.118;7.210;2023-07-29T09:17:24;2.53;;;2.33;;
6983;SDS011;3532;51.118;7.210;2023-07-29T09:19:50;4.90;;;3.03;;
6983;SDS011;3532;51.118;7.210;2023-07-29T09:22:21;4.23;;;2.47;;
6983;SDS011;3532;51.118;7.210;2023-07-29T09:24:47;3.97;;;2.40;;
6983;SDS011;3532;51.118;7.210;2023-07-29T09:27:25;3.43;;;2.10;;
6983;SDS011;3532;51.118;7.210;2023-07-29T09:29:52;2.37;;;2.17;;
6983;SDS011;3532;51.118;7.210;2023-07-29T09:32:18;2.90;;;2.30;;
6983;SDS011;3532;51.118;7.210;2023-07-29T09:34:45;3.07;;;1.90;;
6983;SDS011;3532;51.118;7.210;2023-07-29T09:37:15;2.67;;;2.40;;
6983;SDS011;3532;51.118;7.210;2023-07-29T09:39:43;3.40;;;2.17;;
6983;SDS011;3532;51.118;7.210;2023-07-29T09:42:11;2.80;;;2.60;;
6983;SDS011;3532;51.118;7.210;2023-07-29T09:44:41;2.20;;;2.00;;
6983;SDS011;3532;51.118;7.210;2023-07-29T09:47:06;2.10;;;1.90;;
6983;SDS011;3532;51.118;7.210;2023-07-29T09:49:34;2.20;;;2.00;;
6983;SDS011;3532;51.118;7.210;2023-07-29T09:52:01;2.10;;;1.90;;
6983;SDS011;3532;51.118;7.210;2023-07-29T09:54:29;2.30;;;2.10;;
6983;SDS011;3532;51.118;7.210;2023-07-29T09:56:55;2.43;;;2.17;;
6983;SDS011;3532;51.118;7.210;2023-07-29T09:59:22;2.63;;;2.43;;
6983;SDS011;3532;51.118;7.210;2023-07-29T10:01:48;3.47;;;2.17;;
6983;SDS011;3532;51.118;7.210;2023-07-29T10:04:13;2.93;;;2.60;;
6983;SDS011;3532;51.118;7.210;2023-07-29T10:06:41;2.87;;;2.57;;
6983;SDS011;3532;51.118;7.210;2023-07-29T10:09:07;2.37;;;2.17;;
6983;SDS011;3532;51.118;7.210;2023-07-29T10:11:32;2.67;;;2.47;;
6983;SDS011;3532;51.118;7.210;2023-07-29T10:13:59;4.57;;;2.50;;
6983;SDS011;3532;51.118;7.210;2023-07-29T10:16:25;2.70;;;2.50;;
6983;SDS011;3532;51.118;7.210;2023-07-29T10:18:50;4.23;;;2.80;;
6983;SDS011;3532;51.118;7.210;2023-07-29T10:21:17;3.80;;;2.87;;
6983;SDS011;3532;51.118;7.210;2023-07-29T10:23:43;3.07;;;2.77;;
6983;SDS011;3532;51.118;7.210;2023-07-29T10:26:14;3.10;;;2.73;;
6983;SDS011;3532;51.118;7.210;2023-07-29T10:28:41;2.83;;;2.60;;
6983;SDS011;3532;51.118;7.210;2023-07-29T10:31:11;5.03;;;2.53;;
6983;SDS011;3532;51.118;7.210;2023-07-29T10:33:37;3.13;;;2.60;;
6983;SDS011;3532;51.118;7.210;2023-07-29T10:36:03;2.50;;;2.30;;
6983;SDS011;3532;51.118;7.210;2023-07-29T10:38:29;2.50;;;2.30;;
6983;SDS011;3532;51.118;7.210;2023-07-29T10:40:55;2.60;;;2.40;;
6983;SDS011;3532;51.118;7.210;2023-07-29T10:43:25;3.10;;;2.30;;
6983;SDS011;3532;51.118;7.210;2023-07-29T10:45:52;4.43;;;2.30;;
6983;SDS011;3532;51.118;7.210;2023-07-29T10:54:12;2.53;;;2.33;;
6983;SDS011;3532;51.118;7.210;2023-07-29T10:56:43;2.40;;;2.20;;
6983;SDS011;3532;51.118;7.210;2023-07-29T11:01:38;3.77;;;2.53;;
6983;SDS011;3532;51.118;7.210;2023-07-29T11:15:12;2.50;;;2.30;;
6983;SDS011;3532;51.118;7.210;2023-07-29T11:17:39;2.63;;;2.43;;
6983;SDS011;3532;51.118;7.210;2023-07-29T11:20:24;5.20;;;2.97;;
6983;SDS011;3532;51.118;7.210;2023-07-29T11:22:52;3.17;;;2.87;;
6983;SDS011;3532;51.118;7.210;2023-07-29T11:25:19;4.10;;;2.63;;
6983;SDS011;3532;51.118;7.210;2023-07-29T11:27:45;3.13;;;2.80;;
6983;SDS011;3532;51.118;7.210;2023-07-29T11:30:11;3.03;;;2.70;;
6983;SDS011;3532;51.118;7.210;2023-07-29T11:32:38;3.33;;;3.03;;
6983;SDS011;3532;51.118;7.210;2023-07-29T11:35:05;2.77;;;2.57;;
6983;SDS011;3532;51.118;7.210;2023-07-29T11:37:35;3.70;;;2.77;;
6983;SDS011;3532;51.118;7.210;2023-07-29T11:40:00;3.10;;;2.90;;
6983;SDS011;3532;51.118;7.210;2023-07-29T11:42:27;3.00;;;2.73;;
6983;SDS011;3532;51.118;7.210;2023-07-29T11:44:53;3.30;;;2.47;;
6983;SDS011;3532;51.118;7.210;2023-07-29T11:47:18;3.30;;;3.00;;
6983;SDS011;3532;51.118;7.210;2023-07-29T11:49:43;2.43;;;2.20;;
6983;SDS011;3532;51.118;7.210;2023-07-29T11:52:09;2.40;;;2.03;;
6983;SDS011;3532;51.118;7.210;2023-07-29T11:54:35;3.00;;;2.73;;
6983;SDS011;3532;51.118;7.210;2023-07-29T11:57:02;2.70;;;2.50;;
6983;SDS011;3532;51.118;7.210;2023-07-29T11:59:29;2.27;;;2.03;;
6983;SDS011;3532;51.118;7.210;2023-07-29T12:01:54;2.50;;;2.30;;
6983;SDS011;3532;51.118;7.210;2023-07-29T12:04:19;2.67;;;2.47;;
6983;SDS011;3532;51.118;7.210;2023-07-29T12:06:45;4.43;;;2.73;;
6983;SDS011;3532;51.118;7.210;2023-07-29T12:09:10;2.23;;;2.03;;
6983;SDS011;3532;51.118;7.210;2023-07-29T12:11:38;3.77;;;2.30;;
6983;SDS011;3532;51.118;7.210;2023-07-29T12:14:03;3.60;;;3.30;;
6983;SDS011;3532;51.118;7.210;2023-07-29T12:16:39;2.67;;;2.43;;
6983;SDS011;3532;51.118;7.210;2023-07-29T12:19:05;2.60;;;2.40;;
6983;SDS011;3532;51.118;7.210;2023-07-29T12:21:30;3.07;;;2.87;;
6983;SDS011;3532;51.118;7.210;2023-07-29T12:23:56;2.90;;;2.57;;
6983;SDS011;3532;51.118;7.210;2023-07-29T12:26:21;2.53;;;2.33;;
6983;SDS011;3532;51.118;7.210;2023-07-29T12:28:52;3.20;;;2.90;;
6983;SDS011;3532;51.118;7.210;2023-07-29T12:31:17;3.17;;;2.90;;
6983;SDS011;3532;51.118;7.210;2023-07-29T12:33:43;2.80;;;2.60;;
6983;SDS011;3532;51.118;7.210;2023-07-29T12:36:08;3.87;;;2.93;;
6983;SDS011;3532;51.118;7.210;2023-07-29T12:38:35;3.33;;;2.93;;
6983;SDS011;3532;51.118;7.210;2023-07-29T12:41:00;3.57;;;3.00;;
6983;SDS011;3532;51.118;7.210;2023-07-29T12:43:26;2.87;;;2.63;;
6983;SDS011;3532;51.118;7.210;2023-07-29T12:45:51;2.80;;;2.60;;
6983;SDS011;3532;51.118;7.210;2023-07-29T12:48:17;3.00;;;2.73;;
6983;SDS011;3532;51.118;7.210;2023-07-29T12:50:42;3.67;;;2.60;;
6983;SDS011;3532;51.118;7.210;2023-07-29T12:53:08;3.43;;;2.70;;
6983;SDS011;3532;51.118;7.210;2023-07-29T12:55:37;4.53;;;2.60;;
6983;SDS011;3532;51.118;7.210;2023-07-29T12:58:02;3.03;;;2.73;;
6983;SDS011;3532;51.118;7.210;2023-07-29T13:00:28;3.07;;;2.77;;
6983;SDS011;3532;51.118;7.210;2023-07-29T13:02:54;2.70;;;2.50;;
6983;SDS011;3532;51.118;7.210;2023-07-29T13:05:19;2.70;;;2.27;;
6983;SDS011;3532;51.118;7.210;2023-07-29T13:07:45;2.77;;;2.57;;
6983;SDS011;3532;51.118;7.210;2023-07-29T13:10:10;2.50;;;2.30;;
6983;SDS011;3532;51.118;7.210;2023-07-29T13:12:36;3.33;;;2.73;;
6983;SDS011;3532;51.118;7.210;2023-07-29T13:15:01;4.53;;;2.70;;
6983;SDS011;3532;51.118;7.210;2023-07-29T13:17:27;2.50;;;2.30;;
6983;SDS011;3532;51.118;7.210;2023-07-29T13:19:52;3.00;;;2.80;;
6983;SDS011;3532;51.118;7.210;2023-07-29T13:22:19;3.00;;;2.73;;
6983;SDS011;3532;51.118;7.210;2023-07-29T13:24:45;5.73;;;3.07;;
6983;SDS011;3532;51.118;7.210;2023-07-29T13:27:10;2.60;;;2.40;;
6983;SDS011;3532;51.118;7.210;2023-07-29T13:29:35;2.50;;;2.30;;
6983;SDS011;3532;51.118;7.210;2023-07-29T13:32:01;3.37;;;2.30;;
6983;SDS011;3532;51.118;7.210;2023-07-29T13:34:26;2.60;;;2.40;;
6983;SDS011;3532;51.118;7.210;2023-07-29T13:36:51;2.20;;;1.93;;
6983;SDS011;3532;51.118;7.210;2023-07-29T13:39:16;3.93;;;2.53;;
6983;SDS011;3532;51.118;7.210;2023-07-29T13:41:42;2.53;;;2.33;;
6983;SDS011;3532;51.118;7.210;2023-07-29T13:44:07;2.50;;;2.30;;
6983;SDS011;3532;51.118;7.210;2023-07-29T13:46:32;3.13;;;2.23;;
6983;SDS011;3532;51.118;7.210;2023-07-29T13:48:58;2.40;;;2.20;;
6983;SDS011;3532;51.118;7.210;2023-07-29T13:51:23;2.50;;;2.30;;
6983;SDS011;3532;51.118;7.210;2023-07-29T13:53:48;2.53;;;2.30;;
6983;SDS011;3532;51.118;7.210;2023-07-29T13:56:14;2.60;;;2.40;;
6983;SDS011;3532;51.118;7.210;2023-07-29T13:58:39;3.00;;;2.70;;
6983;SDS011;3532;51.118;7.210;2023-07-29T14:01:05;3.13;;;2.70;;
6983;SDS011;3532;51.118;7.210;2023-07-29T14:03:30;3.43;;;2.77;;
6983;SDS011;3532;51.118;7.210;2023-07-29T14:05:56;2.60;;;2.40;;
6983;SDS011;3532;51.118;7.210;2023-07-29T14:08:21;2.87;;;2.60;;
6983;SDS011;3532;51.118;7.210;2023-07-29T14:10:48;2.50;;;2.30;;
6983;SDS011;3532;51.118;7.210;2023-07-29T14:13:14;3.33;;;2.53;;
6983;SDS011;3532;51.118;7.210;2023-07-29T14:15:39;3.03;;;2.80;;
6983;SDS011;3532;51.118;7.210;2023-07-29T14:18:04;3.57;;;2.97;;
6983;SDS011;3532;51.118;7.210;2023-07-29T14:20:31;2.60;;;2.40;;
6983;SDS011;3532;51.118;7.210;2023-07-29T14:22:56;3.17;;;2.97;;
6983;SDS011;3532;51.118;7.210;2023-07-29T14:25:22;3.30;;;3.00;;
6983;SDS011;3532;51.118;7.210;2023-07-29T14:27:47;3.70;;;3.40;;
6983;SDS011;3532;51.118;7.210;2023-07-29T14:30:12;3.63;;;3.10;;
6983;SDS011;3532;51.118;7.210;2023-07-29T14:32:38;2.87;;;2.53;;
6983;SDS011;3532;51.118;7.210;2023-07-29T14:35:03;2.93;;;2.60;;
6983;SDS011;3532;51.118;7.210;2023-07-29T14:37:32;3.27;;;2.97;;
6983;SDS011;3532;51.118;7.210;2023-07-29T14:39:57;3.83;;;2.80;;
6983;SDS011;3532;51.118;7.210;2023-07-29T14:42:23;2.80;;;2.60;;
6983;SDS011;3532;51.118;7.210;2023-07-29T14:44:48;2.80;;;2.30;;
6983;SDS011;3532;51.118;7.210;2023-07-29T14:47:14;3.10;;;2.40;;
6983;SDS011;3532;51.118;7.210;2023-07-29T14:49:39;2.80;;;2.60;;
6983;SDS011;3532;51.118;7.210;2023-07-29T14:52:05;2.23;;;2.07;;
6983;SDS011;3532;51.118;7.210;2023-07-29T14:54:31;2.83;;;2.63;;
6983;SDS011;3532;51.118;7.210;2023-07-29T14:56:56;2.67;;;2.17;;
6983;SDS011;3532;51.118;7.210;2023-07-29T14:59:22;2.60;;;2.40;;
6983;SDS011;3532;51.118;7.210;2023-07-29T15:01:47;7.13;;;2.90;;
6983;SDS011;3532;51.118;7.210;2023-07-29T15:04:12;3.37;;;2.53;;
6983;SDS011;3532;51.118;7.210;2023-07-29T15:06:37;2.93;;;2.60;;
6983;SDS011;3532;51.118;7.210;2023-07-29T15:09:03;3.57;;;2.50;;
6983;SDS011;3532;51.118;7.210;2023-07-29T15:11:30;2.73;;;2.30;;
6983;SDS011;3532;51.118;7.210;2023-07-29T15:13:57;3.03;;;2.47;;
6983;SDS011;3532;51.118;7.210;2023-07-29T15:16:23;2.40;;;2.20;;
6983;SDS011;3532;51.118;7.210;2023-07-29T15:18:49;3.33;;;2.80;;
6983;SDS011;3532;51.118;7.210;2023-07-29T15:21:14;2.83;;;2.20;;
6983;SDS011;3532;51.118;7.210;2023-07-29T15:23:39;2.60;;;2.40;;
6983;SDS011;3532;51.118;7.210;2023-07-29T15:26:05;2.57;;;2.37;;
6983;SDS011;3532;51.118;7.210;2023-07-29T15:28:30;2.57;;;2.37;;
6983;SDS011;3532;51.118;7.210;2023-07-29T15:30:55;2.60;;;2.40;;